sensor_id;sensor_type;location;lat;lon;timestamp;P1;durP1;ratioP1;P2;durP2;ratioP2
22332;SDS011;11334;36.986;-121.936;2023-05-27T00:02:01;2.80;;;0.65;;
22332;SDS011;11334;36.986;-121.936;2023-05-27T00:04:27;1.40;;;0.60;;
22332;SDS011;11334;36.986;-121.936;2023-05-27T00:06:53;2.17;;;0.68;;
22332;SDS011;11334;36.986;-121.936;2023-05-27T00:09:20;1.25;;;0.50;;
22332;SDS011;11334;36.986;-121.936;2023-05-27T00:11:46;2.05;;;0.77;;
22332;SDS011;11334;36.986;-121.936;2023-05-27T00:14:12;0.90;;;0.55;;
22332;SDS011;11334;36.986;-121.936;2023-05-27T00:16:38;3.22;;;0.68;;
22332;SDS011;11334;36.986;-121.936;2023-05-27T00:19:05;1.10;;;0.60;;
22332;SDS011;11334;36.986;-121.936;2023-05-27T00:21:31;1.83;;;0.65;;
22332;SDS011;11334;36.986;-121.936;2023-05-27T00:23:57;1.17;;;0.68;;
22332;SDS011;11334;36.986;-121.936;2023-05-27T00:26:24;2.65;;;0.82;;
22332;SDS011;11334;36.986;-121.936;2023-05-27T00:28:51;1.40;;;0.73;;
22332;SDS011;11334;36.986;-121.936;2023-05-27T00:31:17;2.60;;;0.90;;
22332;SDS011;11334;36.986;-121.936;2023-05-27T00:33:44;1.35;;;0.80;;
22332;SDS011;11334;36.986;-121.936;2023-05-27T00:36:10;3.28;;;0.80;;
22332;SDS011;11334;36.986;-121.936;2023-05-27T00:38:36;2.28;;;0.75;;
22332;SDS011;11334;36.986;-121.936;2023-05-27T00:41:03;2.08;;;0.60;;
22332;SDS011;11334;36.986;-121.936;2023-05-27T00:43:30;1.35;;;0.80;;
22332;SDS011;11334;36.986;-121.936;2023-05-27T00:45:57;1.55;;;0.50;;
22332;SDS011;11334;36.986;-121.936;2023-05-27T00:48:24;2.63;;;0.70;;
22332;SDS011;11334;36.986;-121.936;2023-05-27T00:50:50;1.95;;;0.60;;
22332;SDS011;11334;36.986;-121.936;2023-05-27T00:53:17;1.70;;;0.60;;
22332;SDS011;11334;36.986;-121.936;2023-05-27T00:55:45;3.08;;;0.88;;
22332;SDS011;11334;36.986;-121.936;2023-05-27T00:58:12;1.67;;;0.70;;
22332;SDS011;11334;36.986;-121.936;2023-05-27T01:00:40;0.95;;;0.50;;
22332;SDS011;11334;36.986;-121.936;2023-05-27T01:03:06;2.17;;;0.75;;
22332;SDS011;11334;36.986;-121.936;2023-05-27T01:05:33;1.10;;;0.77;;
22332;SDS011;11334;36.986;-121.936;2023-05-27T01:08:11;1.67;;;0.52;;
22332;SDS011;11334;36.986;-121.936;2023-05-27T01:10:49;3.38;;;1.00;;
22332;SDS011;11334;36.986;-121.936;2023-05-27T01:15:55;1.38;;;0.70;;
22332;SDS011;11334;36.986;-121.936;2023-05-27T01:18:25;1.27;;;0.75;;
22332;SDS011;11334;36.986;-121.936;2023-05-27T01:20:59;1.80;;;0.95;;
22332;SDS011;11334;36.986;-121.936;2023-05-27T01:23:35;2.00;;;0.70;;
22332;SDS011;11334;36.986;-121.936;2023-05-27T01:26:04;2.38;;;0.85;;
22332;SDS011;11334;36.986;-121.936;2023-05-27T01:28:31;1.80;;;0.73;;
22332;SDS011;11334;36.986;-121.936;2023-05-27T01:31:05;2.58;;;0.85;;
22332;SDS011;11334;36.986;-121.936;2023-05-27T01:33:32;1.25;;;0.73;;
22332;SDS011;11334;36.986;-121.936;2023-05-27T01:36:04;1.85;;;1.10;;
22332;SDS011;11334;36.986;-121.936;2023-05-27T01:38:35;4.38;;;1.27;;
22332;SDS011;11334;36.986;-121.936;2023-05-27T01:41:06;1.02;;;0.93;;
22332;SDS011;11334;36.986;-121.936;2023-05-27T01:43:35;2.22;;;0.90;;
22332;SDS011;11334;36.986;-121.936;2023-05-27T01:46:03;1.15;;;0.70;;
22332;SDS011;11334;36.986;-121.936;2023-05-27T01:48:29;1.92;;;0.95;;
22332;SDS011;11334;36.986;-121.936;2023-05-27T01:50:55;1.77;;;0.68;;
22332;SDS011;11334;36.986;-121.936;2023-05-27T01:53:21;1.52;;;1.10;;
22332;SDS011;11334;36.986;-121.936;2023-05-27T01:55:48;1.00;;;0.68;;
22332;SDS011;11334;36.986;-121.936;2023-05-27T01:58:14;3.13;;;1.10;;
22332;SDS011;11334;36.986;-121.936;2023-05-27T02:00:41;3.05;;;1.10;;
22332;SDS011;11334;36.986;-121.936;2023-05-27T02:03:07;1.58;;;0.90;;
22332;SDS011;11334;36.986;-121.936;2023-05-27T02:05:33;2.72;;;0.80;;
22332;SDS011;11334;36.986;-121.936;2023-05-27T02:08:01;2.30;;;0.55;;
22332;SDS011;11334;36.986;-121.936;2023-05-27T02:10:28;1.80;;;0.98;;
22332;SDS011;11334;36.986;-121.936;2023-05-27T02:12:54;1.38;;;0.68;;
22332;SDS011;11334;36.986;-121.936;2023-05-27T02:15:21;1.65;;;1.00;;
22332;SDS011;11334;36.986;-121.936;2023-05-27T02:17:49;2.03;;;1.40;;
22332;SDS011;11334;36.986;-121.936;2023-05-27T02:20:21;1.00;;;0.80;;
22332;SDS011;11334;36.986;-121.936;2023-05-27T02:22:51;1.65;;;1.13;;
22332;SDS011;11334;36.986;-121.936;2023-05-27T02:25:18;1.17;;;1.05;;
22332;SDS011;11334;36.986;-121.936;2023-05-27T02:27:44;3.88;;;1.27;;
22332;SDS011;11334;36.986;-121.936;2023-05-27T02:30:14;2.58;;;0.98;;
22332;SDS011;11334;36.986;-121.936;2023-05-27T02:32:41;1.90;;;1.05;;
22332;SDS011;11334;36.986;-121.936;2023-05-27T02:35:07;3.22;;;0.80;;
22332;SDS011;11334;36.986;-121.936;2023-05-27T02:37:34;1.77;;;0.65;;
22332;SDS011;11334;36.986;-121.936;2023-05-27T02:40:00;1.17;;;0.77;;
22332;SDS011;11334;36.986;-121.936;2023-05-27T02:42:26;1.55;;;0.80;;
22332;SDS011;11334;36.986;-121.936;2023-05-27T02:44:52;3.03;;;0.77;;
22332;SDS011;11334;36.986;-121.936;2023-05-27T02:47:18;1.88;;;1.05;;
22332;SDS011;11334;36.986;-121.936;2023-05-27T02:49:45;3.10;;;0.80;;
22332;SDS011;11334;36.986;-121.936;2023-05-27T02:52:11;2.08;;;0.80;;
22332;SDS011;11334;36.986;-121.936;2023-05-27T02:54:37;3.72;;;0.70;;
22332;SDS011;11334;36.986;-121.936;2023-05-27T02:57:03;1.60;;;0.85;;
22332;SDS011;11334;36.986;-121.936;2023-05-27T02:59:30;0.93;;;0.57;;
22332;SDS011;11334;36.986;-121.936;2023-05-27T03:01:56;0.98;;;0.82;;
22332;SDS011;11334;36.986;-121.936;2023-05-27T03:04:22;1.23;;;0.90;;
22332;SDS011;11334;36.986;-121.936;2023-05-27T03:06:48;2.83;;;1.05;;
22332;SDS011;11334;36.986;-121.936;2023-05-27T03:09:14;2.42;;;1.20;;
22332;SDS011;11334;36.986;-121.936;2023-05-27T03:11:41;1.50;;;1.20;;
22332;SDS011;11334;36.986;-121.936;2023-05-27T03:14:07;1.85;;;1.30;;
22332;SDS011;11334;36.986;-121.936;2023-05-27T03:16:33;2.80;;;1.88;;
22332;SDS011;11334;36.986;-121.936;2023-05-27T03:18:59;7.22;;;1.92;;
22332;SDS011;11334;36.986;-121.936;2023-05-27T03:21:27;7.05;;;2.05;;
22332;SDS011;11334;36.986;-121.936;2023-05-27T03:23:53;6.68;;;1.77;;
22332;SDS011;11334;36.986;-121.936;2023-05-27T03:26:19;6.63;;;1.55;;
22332;SDS011;11334;36.986;-121.936;2023-05-27T03:28:47;4.93;;;1.77;;
22332;SDS011;11334;36.986;-121.936;2023-05-27T03:31:13;4.30;;;2.20;;
22332;SDS011;11334;36.986;-121.936;2023-05-27T03:33:39;4.25;;;1.58;;
22332;SDS011;11334;36.986;-121.936;2023-05-27T03:36:05;4.55;;;1.83;;
22332;SDS011;11334;36.986;-121.936;2023-05-27T03:38:32;4.93;;;1.77;;
22332;SDS011;11334;36.986;-121.936;2023-05-27T03:40:58;4.72;;;1.85;;
22332;SDS011;11334;36.986;-121.936;2023-05-27T03:43:24;7.70;;;1.90;;
22332;SDS011;11334;36.986;-121.936;2023-05-27T03:45:51;3.42;;;2.00;;
22332;SDS011;11334;36.986;-121.936;2023-05-27T03:48:17;6.47;;;1.92;;
22332;SDS011;11334;36.986;-121.936;2023-05-27T03:50:43;9.20;;;2.40;;
22332;SDS011;11334;36.986;-121.936;2023-05-27T03:53:09;5.38;;;2.00;;
22332;SDS011;11334;36.986;-121.936;2023-05-27T03:55:36;3.50;;;2.25;;
22332;SDS011;11334;36.986;-121.936;2023-05-27T03:58:02;4.18;;;2.50;;
22332;SDS011;11334;36.986;-121.936;2023-05-27T04:00:29;4.70;;;2.42;;
22332;SDS011;11334;36.986;-121.936;2023-05-27T04:02:56;4.78;;;2.05;;
22332;SDS011;11334;36.986;-121.936;2023-05-27T04:05:22;3.88;;;1.88;;
22332;SDS011;11334;36.986;-121.936;2023-05-27T04:07:49;5.30;;;1.85;;
22332;SDS011;11334;36.986;-121.936;2023-05-27T04:10:15;1.92;;;1.70;;
22332;SDS011;11334;36.986;-121.936;2023-05-27T04:12:41;4.90;;;1.40;;
22332;SDS011;11334;36.986;-121.936;2023-05-27T04:15:07;2.65;;;1.40;;
22332;SDS011;11334;36.986;-121.936;2023-05-27T04:17:34;5.47;;;1.20;;
22332;SDS011;11334;36.986;-121.936;2023-05-27T04:20:01;3.35;;;0.98;;
22332;SDS011;11334;36.986;-121.936;2023-05-27T04:22:36;3.10;;;0.90;;
22332;SDS011;11334;36.986;-121.936;2023-05-27T04:25:02;2.90;;;0.93;;
22332;SDS011;11334;36.986;-121.936;2023-05-27T04:27:29;2.28;;;0.80;;
22332;SDS011;11334;36.986;-121.936;2023-05-27T04:29:55;3.20;;;1.02;;
22332;SDS011;11334;36.986;-121.936;2023-05-27T04:32:21;2.88;;;1.02;;
22332;SDS011;11334;36.986;-121.936;2023-05-27T04:34:47;1.73;;;0.88;;
22332;SDS011;11334;36.986;-121.936;2023-05-27T04:37:14;1.90;;;0.82;;
22332;SDS011;11334;36.986;-121.936;2023-05-27T04:39:42;2.60;;;1.17;;
22332;SDS011;11334;36.986;-121.936;2023-05-27T04:42:11;1.35;;;0.77;;
22332;SDS011;11334;36.986;-121.936;2023-05-27T04:44:40;0.75;;;0.70;;
22332;SDS011;11334;36.986;-121.936;2023-05-27T04:47:07;3.90;;;0.90;;
22332;SDS011;11334;36.986;-121.936;2023-05-27T04:49:33;2.20;;;0.80;;
22332;SDS011;11334;36.986;-121.936;2023-05-27T04:52:00;3.00;;;0.75;;
22332;SDS011;11334;36.986;-121.936;2023-05-27T04:54:26;2.25;;;0.70;;
22332;SDS011;11334;36.986;-121.936;2023-05-27T04:56:53;1.27;;;0.70;;
22332;SDS011;11334;36.986;-121.936;2023-05-27T04:59:19;1.55;;;0.88;;
22332;SDS011;11334;36.986;-121.936;2023-05-27T05:01:46;3.50;;;1.17;;
22332;SDS011;11334;36.986;-121.936;2023-05-27T05:04:38;3.22;;;1.10;;
22332;SDS011;11334;36.986;-121.936;2023-05-27T05:07:04;2.53;;;0.80;;
22332;SDS011;11334;36.986;-121.936;2023-05-27T05:09:31;2.10;;;1.00;;
22332;SDS011;11334;36.986;-121.936;2023-05-27T05:11:57;4.10;;;0.95;;
22332;SDS011;11334;36.986;-121.936;2023-05-27T05:14:23;3.47;;;0.98;;
22332;SDS011;11334;36.986;-121.936;2023-05-27T05:16:49;1.70;;;0.95;;
22332;SDS011;11334;36.986;-121.936;2023-05-27T05:19:15;1.13;;;0.70;;
22332;SDS011;11334;36.986;-121.936;2023-05-27T05:21:42;4.75;;;1.05;;
22332;SDS011;11334;36.986;-121.936;2023-05-27T05:24:08;1.58;;;1.08;;
22332;SDS011;11334;36.986;-121.936;2023-05-27T05:26:34;4.28;;;1.48;;
22332;SDS011;11334;36.986;-121.936;2023-05-27T05:29:00;3.38;;;1.33;;
22332;SDS011;11334;36.986;-121.936;2023-05-27T05:31:27;4.72;;;1.13;;
22332;SDS011;11334;36.986;-121.936;2023-05-27T05:33:53;4.03;;;1.13;;
22332;SDS011;11334;36.986;-121.936;2023-05-27T05:36:19;2.28;;;1.20;;
22332;SDS011;11334;36.986;-121.936;2023-05-27T05:38:46;2.45;;;1.35;;
22332;SDS011;11334;36.986;-121.936;2023-05-27T05:41:12;5.63;;;1.35;;
22332;SDS011;11334;36.986;-121.936;2023-05-27T05:43:38;3.47;;;1.00;;
22332;SDS011;11334;36.986;-121.936;2023-05-27T05:46:05;2.28;;;1.15;;
22332;SDS011;11334;36.986;-121.936;2023-05-27T05:48:31;2.67;;;1.40;;
22332;SDS011;11334;36.986;-121.936;2023-05-27T05:50:57;2.60;;;1.08;;
22332;SDS011;11334;36.986;-121.936;2023-05-27T05:53:26;4.45;;;1.20;;
22332;SDS011;11334;36.986;-121.936;2023-05-27T05:55:53;3.90;;;1.23;;
22332;SDS011;11334;36.986;-121.936;2023-05-27T05:58:20;3.67;;;1.38;;
22332;SDS011;11334;36.986;-121.936;2023-05-27T06:00:46;3.40;;;1.20;;
22332;SDS011;11334;36.986;-121.936;2023-05-27T06:03:12;6.00;;;1.85;;
22332;SDS011;11334;36.986;-121.936;2023-05-27T06:05:38;3.95;;;1.20;;
22332;SDS011;11334;36.986;-121.936;2023-05-27T06:08:04;3.28;;;1.50;;
22332;SDS011;11334;36.986;-121.936;2023-05-27T06:10:31;2.17;;;1.10;;
22332;SDS011;11334;36.986;-121.936;2023-05-27T06:12:57;5.10;;;1.20;;
22332;SDS011;11334;36.986;-121.936;2023-05-27T06:15:23;2.05;;;1.10;;
22332;SDS011;11334;36.986;-121.936;2023-05-27T06:17:50;4.97;;;1.02;;
22332;SDS011;11334;36.986;-121.936;2023-05-27T06:20:18;2.58;;;1.15;;
22332;SDS011;11334;36.986;-121.936;2023-05-27T06:22:45;3.65;;;1.35;;
22332;SDS011;11334;36.986;-121.936;2023-05-27T06:25:14;6.22;;;1.10;;
22332;SDS011;11334;36.986;-121.936;2023-05-27T06:27:41;3.25;;;1.17;;
22332;SDS011;11334;36.986;-121.936;2023-05-27T06:30:07;3.60;;;1.48;;
22332;SDS011;11334;36.986;-121.936;2023-05-27T06:32:34;3.30;;;1.10;;
22332;SDS011;11334;36.986;-121.936;2023-05-27T06:35:00;1.35;;;0.90;;
22332;SDS011;11334;36.986;-121.936;2023-05-27T06:37:26;4.72;;;1.02;;
22332;SDS011;11334;36.986;-121.936;2023-05-27T06:39:52;2.28;;;0.80;;
22332;SDS011;11334;36.986;-121.936;2023-05-27T06:42:18;2.83;;;1.00;;
22332;SDS011;11334;36.986;-121.936;2023-05-27T06:44:45;1.83;;;1.10;;
22332;SDS011;11334;36.986;-121.936;2023-05-27T06:47:11;3.83;;;1.00;;
22332;SDS011;11334;36.986;-121.936;2023-05-27T06:49:37;1.83;;;0.90;;
22332;SDS011;11334;36.986;-121.936;2023-05-27T06:52:03;2.03;;;0.95;;
22332;SDS011;11334;36.986;-121.936;2023-05-27T06:54:30;3.17;;;0.80;;
22332;SDS011;11334;36.986;-121.936;2023-05-27T06:56:56;1.63;;;0.88;;
22332;SDS011;11334;36.986;-121.936;2023-05-27T06:59:23;1.45;;;0.93;;
22332;SDS011;11334;36.986;-121.936;2023-05-27T07:01:49;5.45;;;1.25;;
22332;SDS011;11334;36.986;-121.936;2023-05-27T07:04:15;10.25;;;8.07;;
22332;SDS011;11334;36.986;-121.936;2023-05-27T07:06:42;14.43;;;10.30;;
22332;SDS011;11334;36.986;-121.936;2023-05-27T07:09:08;4.13;;;2.78;;
22332;SDS011;11334;36.986;-121.936;2023-05-27T07:11:36;1.92;;;1.10;;
22332;SDS011;11334;36.986;-121.936;2023-05-27T07:14:02;1.10;;;0.70;;
22332;SDS011;11334;36.986;-121.936;2023-05-27T07:16:29;0.95;;;0.68;;
22332;SDS011;11334;36.986;-121.936;2023-05-27T07:18:55;1.52;;;0.70;;
22332;SDS011;11334;36.986;-121.936;2023-05-27T07:21:21;2.38;;;0.93;;
22332;SDS011;11334;36.986;-121.936;2023-05-27T07:23:48;2.60;;;0.70;;
22332;SDS011;11334;36.986;-121.936;2023-05-27T07:26:14;1.85;;;0.80;;
22332;SDS011;11334;36.986;-121.936;2023-05-27T07:28:40;0.60;;;0.60;;
22332;SDS011;11334;36.986;-121.936;2023-05-27T07:31:06;3.13;;;0.70;;
22332;SDS011;11334;36.986;-121.936;2023-05-27T07:33:33;0.77;;;0.68;;
22332;SDS011;11334;36.986;-121.936;2023-05-27T07:35:59;2.17;;;0.70;;
22332;SDS011;11334;36.986;-121.936;2023-05-27T07:38:25;3.22;;;1.10;;
22332;SDS011;11334;36.986;-121.936;2023-05-27T07:40:51;2.80;;;0.80;;
22332;SDS011;11334;36.986;-121.936;2023-05-27T07:43:18;1.10;;;0.80;;
22332;SDS011;11334;36.986;-121.936;2023-05-27T07:45:44;1.20;;;0.80;;
22332;SDS011;11334;36.986;-121.936;2023-05-27T07:48:10;2.63;;;0.82;;
22332;SDS011;11334;36.986;-121.936;2023-05-27T07:50:36;1.85;;;0.77;;
22332;SDS011;11334;36.986;-121.936;2023-05-27T07:53:02;0.60;;;0.60;;
22332;SDS011;11334;36.986;-121.936;2023-05-27T07:55:29;1.85;;;0.75;;
22332;SDS011;11334;36.986;-121.936;2023-05-27T07:57:55;2.20;;;0.75;;
22332;SDS011;11334;36.986;-121.936;2023-05-27T08:00:22;2.30;;;0.80;;
22332;SDS011;11334;36.986;-121.936;2023-05-27T08:02:48;2.55;;;0.80;;
22332;SDS011;11334;36.986;-121.936;2023-05-27T08:05:14;2.08;;;0.90;;
22332;SDS011;11334;36.986;-121.936;2023-05-27T08:07:41;1.05;;;0.60;;
22332;SDS011;11334;36.986;-121.936;2023-05-27T08:10:07;1.67;;;0.50;;
22332;SDS011;11334;36.986;-121.936;2023-05-27T08:12:34;2.08;;;0.75;;
22332;SDS011;11334;36.986;-121.936;2023-05-27T08:15:00;1.00;;;0.73;;
22332;SDS011;11334;36.986;-121.936;2023-05-27T08:17:26;1.63;;;0.68;;
22332;SDS011;11334;36.986;-121.936;2023-05-27T08:19:52;1.73;;;0.70;;
22332;SDS011;11334;36.986;-121.936;2023-05-27T08:22:19;2.08;;;0.82;;
22332;SDS011;11334;36.986;-121.936;2023-05-27T08:24:45;1.73;;;0.70;;
22332;SDS011;11334;36.986;-121.936;2023-05-27T08:27:14;0.70;;;0.70;;
22332;SDS011;11334;36.986;-121.936;2023-05-27T08:29:42;2.25;;;0.70;;
22332;SDS011;11334;36.986;-121.936;2023-05-27T08:32:09;0.70;;;0.70;;
22332;SDS011;11334;36.986;-121.936;2023-05-27T08:34:36;2.50;;;0.70;;
22332;SDS011;11334;36.986;-121.936;2023-05-27T08:37:02;2.95;;;1.08;;
22332;SDS011;11334;36.986;-121.936;2023-05-27T08:39:29;1.00;;;0.80;;
22332;SDS011;11334;36.986;-121.936;2023-05-27T08:41:55;1.83;;;1.00;;
22332;SDS011;11334;36.986;-121.936;2023-05-27T08:44:22;1.65;;;0.70;;
22332;SDS011;11334;36.986;-121.936;2023-05-27T08:46:49;0.60;;;0.60;;
22332;SDS011;11334;36.986;-121.936;2023-05-27T08:49:16;2.47;;;0.90;;
22332;SDS011;11334;36.986;-121.936;2023-05-27T08:51:43;2.00;;;0.90;;
22332;SDS011;11334;36.986;-121.936;2023-05-27T08:54:11;2.75;;;0.80;;
22332;SDS011;11334;36.986;-121.936;2023-05-27T08:56:37;1.40;;;0.77;;
22332;SDS011;11334;36.986;-121.936;2023-05-27T08:59:05;2.30;;;0.93;;
22332;SDS011;11334;36.986;-121.936;2023-05-27T09:01:33;1.67;;;0.80;;
22332;SDS011;11334;36.986;-121.936;2023-05-27T09:04:00;2.15;;;0.80;;
22332;SDS011;11334;36.986;-121.936;2023-05-27T09:06:27;0.85;;;0.70;;
22332;SDS011;11334;36.986;-121.936;2023-05-27T09:08:54;0.98;;;0.85;;
22332;SDS011;11334;36.986;-121.936;2023-05-27T09:11:23;2.05;;;0.77;;
22332;SDS011;11334;36.986;-121.936;2023-05-27T09:13:54;1.20;;;0.93;;
22332;SDS011;11334;36.986;-121.936;2023-05-27T09:16:23;3.00;;;1.00;;
22332;SDS011;11334;36.986;-121.936;2023-05-27T09:18:49;1.15;;;0.68;;
22332;SDS011;11334;36.986;-121.936;2023-05-27T09:21:16;2.53;;;0.82;;
22332;SDS011;11334;36.986;-121.936;2023-05-27T09:23:42;0.75;;;0.73;;
22332;SDS011;11334;36.986;-121.936;2023-05-27T09:26:09;1.08;;;0.98;;
22332;SDS011;11334;36.986;-121.936;2023-05-27T09:28:36;1.70;;;0.70;;
22332;SDS011;11334;36.986;-121.936;2023-05-27T09:31:04;1.35;;;0.75;;
22332;SDS011;11334;36.986;-121.936;2023-05-27T09:33:35;3.22;;;1.13;;
22332;SDS011;11334;36.986;-121.936;2023-05-27T09:36:06;2.55;;;0.75;;
22332;SDS011;11334;36.986;-121.936;2023-05-27T09:38:36;0.70;;;0.60;;
22332;SDS011;11334;36.986;-121.936;2023-05-27T09:41:03;3.00;;;0.98;;
22332;SDS011;11334;36.986;-121.936;2023-05-27T09:43:29;1.58;;;1.00;;
22332;SDS011;11334;36.986;-121.936;2023-05-27T09:46:02;2.50;;;0.90;;
22332;SDS011;11334;36.986;-121.936;2023-05-27T09:48:32;1.20;;;0.93;;
22332;SDS011;11334;36.986;-121.936;2023-05-27T09:51:00;0.90;;;0.90;;
22332;SDS011;11334;36.986;-121.936;2023-05-27T09:53:27;1.60;;;0.70;;
22332;SDS011;11334;36.986;-121.936;2023-05-27T09:55:53;1.58;;;0.85;;
22332;SDS011;11334;36.986;-121.936;2023-05-27T09:58:21;1.73;;;0.90;;
22332;SDS011;11334;36.986;-121.936;2023-05-27T10:00:48;1.55;;;0.73;;
22332;SDS011;11334;36.986;-121.936;2023-05-27T10:03:21;3.58;;;1.73;;
22332;SDS011;11334;36.986;-121.936;2023-05-27T10:05:55;1.67;;;1.00;;
22332;SDS011;11334;36.986;-121.936;2023-05-27T10:08:22;4.55;;;1.10;;
22332;SDS011;11334;36.986;-121.936;2023-05-27T10:10:48;5.70;;;1.40;;
22332;SDS011;11334;36.986;-121.936;2023-05-27T10:13:15;1.55;;;1.00;;
22332;SDS011;11334;36.986;-121.936;2023-05-27T10:15:47;2.60;;;0.77;;
22332;SDS011;11334;36.986;-121.936;2023-05-27T10:18:26;3.80;;;1.20;;
22332;SDS011;11334;36.986;-121.936;2023-05-27T10:20:55;2.13;;;1.10;;
22332;SDS011;11334;36.986;-121.936;2023-05-27T10:23:26;2.60;;;0.90;;
22332;SDS011;11334;36.986;-121.936;2023-05-27T10:28:37;1.45;;;0.95;;
22332;SDS011;11334;36.986;-121.936;2023-05-27T10:31:08;3.00;;;1.00;;
22332;SDS011;11334;36.986;-121.936;2023-05-27T10:33:36;2.22;;;1.08;;
22332;SDS011;11334;36.986;-121.936;2023-05-27T10:36:11;2.03;;;1.10;;
22332;SDS011;11334;36.986;-121.936;2023-05-27T10:38:42;3.28;;;1.27;;
22332;SDS011;11334;36.986;-121.936;2023-05-27T10:41:21;4.50;;;1.20;;
22332;SDS011;11334;36.986;-121.936;2023-05-27T10:43:54;4.03;;;1.17;;
22332;SDS011;11334;36.986;-121.936;2023-05-27T10:46:22;1.88;;;1.02;;
22332;SDS011;11334;36.986;-121.936;2023-05-27T10:48:49;2.65;;;1.45;;
22332;SDS011;11334;36.986;-121.936;2023-05-27T10:51:15;4.28;;;1.38;;
22332;SDS011;11334;36.986;-121.936;2023-05-27T10:53:41;2.00;;;1.27;;
22332;SDS011;11334;36.986;-121.936;2023-05-27T10:56:07;3.00;;;1.10;;
22332;SDS011;11334;36.986;-121.936;2023-05-27T10:58:35;1.17;;;0.80;;
22332;SDS011;11334;36.986;-121.936;2023-05-27T11:01:07;3.47;;;1.20;;
22332;SDS011;11334;36.986;-121.936;2023-05-27T11:03:41;2.45;;;1.02;;
22332;SDS011;11334;36.986;-121.936;2023-05-27T11:06:09;2.72;;;1.15;;
22332;SDS011;11334;36.986;-121.936;2023-05-27T11:08:36;3.05;;;1.10;;
22332;SDS011;11334;36.986;-121.936;2023-05-27T11:11:05;1.50;;;1.00;;
22332;SDS011;11334;36.986;-121.936;2023-05-27T11:13:45;4.50;;;1.20;;
22332;SDS011;11334;36.986;-121.936;2023-05-27T11:16:12;6.25;;;1.23;;
22332;SDS011;11334;36.986;-121.936;2023-05-27T11:21:10;2.72;;;1.25;;
22332;SDS011;11334;36.986;-121.936;2023-05-27T11:26:11;4.55;;;1.30;;
22332;SDS011;11334;36.986;-121.936;2023-05-27T11:28:44;3.58;;;1.42;;
22332;SDS011;11334;36.986;-121.936;2023-05-27T11:31:14;1.10;;;1.02;;
22332;SDS011;11334;36.986;-121.936;2023-05-27T11:33:41;2.55;;;1.10;;
22332;SDS011;11334;36.986;-121.936;2023-05-27T11:36:11;2.45;;;1.13;;
22332;SDS011;11334;36.986;-121.936;2023-05-27T11:38:45;2.90;;;1.58;;
22332;SDS011;11334;36.986;-121.936;2023-05-27T11:41:12;3.95;;;1.20;;
22332;SDS011;11334;36.986;-121.936;2023-05-27T11:46:35;1.30;;;1.08;;
22332;SDS011;11334;36.986;-121.936;2023-05-27T11:49:06;2.55;;;1.00;;
22332;SDS011;11334;36.986;-121.936;2023-05-27T11:51:34;3.13;;;1.33;;
22332;SDS011;11334;36.986;-121.936;2023-05-27T11:54:03;3.67;;;1.23;;
22332;SDS011;11334;36.986;-121.936;2023-05-27T11:56:30;4.30;;;1.10;;
22332;SDS011;11334;36.986;-121.936;2023-05-27T11:58:56;4.75;;;1.55;;
22332;SDS011;11334;36.986;-121.936;2023-05-27T12:01:23;4.47;;;1.33;;
22332;SDS011;11334;36.986;-121.936;2023-05-27T12:03:50;3.25;;;1.50;;
22332;SDS011;11334;36.986;-121.936;2023-05-27T12:06:17;1.65;;;1.10;;
22332;SDS011;11334;36.986;-121.936;2023-05-27T12:08:43;3.53;;;1.35;;
22332;SDS011;11334;36.986;-121.936;2023-05-27T12:11:10;2.35;;;1.35;;
22332;SDS011;11334;36.986;-121.936;2023-05-27T12:13:36;2.85;;;1.00;;
22332;SDS011;11334;36.986;-121.936;2023-05-27T12:16:03;0.88;;;0.70;;
22332;SDS011;11334;36.986;-121.936;2023-05-27T12:18:30;1.13;;;0.80;;
22332;SDS011;11334;36.986;-121.936;2023-05-27T12:20:56;0.63;;;0.63;;
22332;SDS011;11334;36.986;-121.936;2023-05-27T12:23:22;0.75;;;0.70;;
22332;SDS011;11334;36.986;-121.936;2023-05-27T12:25:48;1.60;;;0.80;;
22332;SDS011;11334;36.986;-121.936;2023-05-27T12:28:15;3.40;;;1.05;;
22332;SDS011;11334;36.986;-121.936;2023-05-27T12:30:41;0.60;;;0.60;;
22332;SDS011;11334;36.986;-121.936;2023-05-27T12:33:07;2.10;;;0.73;;
22332;SDS011;11334;36.986;-121.936;2023-05-27T12:35:33;1.77;;;0.80;;
22332;SDS011;11334;36.986;-121.936;2023-05-27T12:38:00;2.40;;;0.77;;
22332;SDS011;11334;36.986;-121.936;2023-05-27T12:40:26;3.47;;;0.88;;
22332;SDS011;11334;36.986;-121.936;2023-05-27T12:42:53;1.92;;;0.95;;
22332;SDS011;11334;36.986;-121.936;2023-05-27T12:45:19;2.17;;;0.82;;
22332;SDS011;11334;36.986;-121.936;2023-05-27T12:47:48;2.72;;;1.00;;
22332;SDS011;11334;36.986;-121.936;2023-05-27T12:50:15;3.47;;;0.90;;
22332;SDS011;11334;36.986;-121.936;2023-05-27T12:52:42;4.18;;;1.15;;
22332;SDS011;11334;36.986;-121.936;2023-05-27T12:55:14;3.08;;;1.25;;
22332;SDS011;11334;36.986;-121.936;2023-05-27T12:57:45;1.67;;;1.00;;
22332;SDS011;11334;36.986;-121.936;2023-05-27T13:00:13;1.60;;;0.70;;
22332;SDS011;11334;36.986;-121.936;2023-05-27T13:02:40;2.40;;;0.93;;
22332;SDS011;11334;36.986;-121.936;2023-05-27T13:05:08;1.80;;;0.93;;
22332;SDS011;11334;36.986;-121.936;2023-05-27T13:07:35;2.35;;;1.08;;
22332;SDS011;11334;36.986;-121.936;2023-05-27T13:10:05;2.30;;;0.80;;
22332;SDS011;11334;36.986;-121.936;2023-05-27T13:12:34;2.20;;;1.33;;
22332;SDS011;11334;36.986;-121.936;2023-05-27T13:15:00;4.35;;;1.20;;
22332;SDS011;11334;36.986;-121.936;2023-05-27T13:17:31;1.70;;;0.80;;
22332;SDS011;11334;36.986;-121.936;2023-05-27T13:19:58;1.80;;;1.20;;
22332;SDS011;11334;36.986;-121.936;2023-05-27T13:22:24;1.60;;;1.20;;
22332;SDS011;11334;36.986;-121.936;2023-05-27T13:24:51;2.30;;;1.00;;
22332;SDS011;11334;36.986;-121.936;2023-05-27T13:27:17;4.30;;;1.48;;
22332;SDS011;11334;36.986;-121.936;2023-05-27T13:29:43;4.20;;;1.38;;
22332;SDS011;11334;36.986;-121.936;2023-05-27T13:32:09;2.08;;;1.02;;
22332;SDS011;11334;36.986;-121.936;2023-05-27T13:34:36;3.42;;;1.10;;
22332;SDS011;11334;36.986;-121.936;2023-05-27T13:37:02;2.88;;;0.90;;
22332;SDS011;11334;36.986;-121.936;2023-05-27T13:39:29;2.25;;;1.00;;
22332;SDS011;11334;36.986;-121.936;2023-05-27T13:41:56;2.95;;;1.00;;
22332;SDS011;11334;36.986;-121.936;2023-05-27T13:44:25;3.80;;;1.20;;
22332;SDS011;11334;36.986;-121.936;2023-05-27T13:46:52;1.25;;;0.90;;
22332;SDS011;11334;36.986;-121.936;2023-05-27T13:49:18;3.15;;;1.02;;
22332;SDS011;11334;36.986;-121.936;2023-05-27T13:51:45;3.15;;;1.00;;
22332;SDS011;11334;36.986;-121.936;2023-05-27T13:54:12;2.92;;;1.15;;
22332;SDS011;11334;36.986;-121.936;2023-05-27T13:56:41;3.53;;;1.10;;
22332;SDS011;11334;36.986;-121.936;2023-05-27T13:59:07;2.55;;;0.90;;
22332;SDS011;11334;36.986;-121.936;2023-05-27T14:01:34;1.90;;;1.00;;
22332;SDS011;11334;36.986;-121.936;2023-05-27T14:04:02;3.70;;;1.17;;
22332;SDS011;11334;36.986;-121.936;2023-05-27T14:06:28;1.70;;;1.10;;
22332;SDS011;11334;36.986;-121.936;2023-05-27T14:08:55;1.90;;;0.80;;
22332;SDS011;11334;36.986;-121.936;2023-05-27T14:11:21;3.53;;;1.10;;
22332;SDS011;11334;36.986;-121.936;2023-05-27T14:13:48;0.88;;;0.80;;
22332;SDS011;11334;36.986;-121.936;2023-05-27T14:16:15;7.18;;;1.17;;
22332;SDS011;11334;36.986;-121.936;2023-05-27T14:18:43;2.42;;;1.00;;
22332;SDS011;11334;36.986;-121.936;2023-05-27T14:21:09;3.45;;;1.17;;
22332;SDS011;11334;36.986;-121.936;2023-05-27T14:23:35;2.10;;;0.93;;